createdAt,value
2017-08-20T00:02:04.962Z,3.45
2017-08-20T00:04:31.572Z,3.58
2017-08-20T00:06:58.892Z,3.65
2017-08-20T00:09:25.527Z,2.97
2017-08-20T00:11:52.173Z,3.60
2017-08-20T00:14:18.827Z,3.60
2017-08-20T00:16:45.571Z,3.10
2017-08-20T00:19:12.292Z,3.97
2017-08-20T00:21:38.967Z,3.33
2017-08-20T00:24:05.690Z,3.60
2017-08-20T00:26:32.337Z,3.08
2017-08-20T00:28:59.019Z,3.60
2017-08-20T00:31:25.697Z,3.58
2017-08-20T00:33:52.337Z,3.22
2017-08-20T00:36:18.993Z,3.30
2017-08-20T00:38:45.646Z,3.20
2017-08-20T00:41:12.352Z,2.83
2017-08-20T00:43:39.211Z,3.20
2017-08-20T00:46:05.848Z,3.15
2017-08-20T00:48:32.506Z,2.70
2017-08-20T00:50:59.218Z,3.75
2017-08-20T00:53:25.959Z,3.28
2017-08-20T00:55:52.618Z,3.90
2017-08-20T00:58:19.307Z,3.92
2017-08-20T01:00:45.976Z,4.57
2017-08-20T01:03:12.626Z,3.62
2017-08-20T01:05:39.302Z,3.70
2017-08-20T01:08:05.944Z,3.62
2017-08-20T01:10:32.583Z,3.10
2017-08-20T01:12:59.269Z,4.10
2017-08-20T01:15:26.016Z,3.03
2017-08-20T01:17:52.757Z,3.25
2017-08-20T01:20:19.501Z,3.50
2017-08-20T01:22:46.155Z,2.90
2017-08-20T01:25:12.796Z,3.45
2017-08-20T01:27:39.521Z,3.92
2017-08-20T01:30:06.160Z,3.75
2017-08-20T01:32:32.915Z,3.85
2017-08-20T01:34:59.654Z,3.35
2017-08-20T01:37:26.300Z,3.30
2017-08-20T01:39:53.039Z,3.40
2017-08-20T01:42:19.701Z,3.78
2017-08-20T01:44:46.419Z,3.90
2017-08-20T01:47:13.140Z,3.08
2017-08-20T01:49:39.902Z,3.45
2017-08-20T01:52:06.564Z,3.67
2017-08-20T01:54:33.212Z,4.15
2017-08-20T01:56:59.914Z,3.67
2017-08-20T01:59:26.648Z,3.55
2017-08-20T02:01:53.290Z,4.03
2017-08-20T02:04:19.944Z,4.35
2017-08-20T02:06:46.589Z,3.97
2017-08-20T02:09:13.243Z,4.68
2017-08-20T02:11:39.959Z,4.35
2017-08-20T02:14:06.695Z,4.00
2017-08-20T02:16:33.354Z,4.05
2017-08-20T02:19:00.080Z,3.40
2017-08-20T02:21:26.818Z,3.40
2017-08-20T02:23:53.474Z,3.37
2017-08-20T02:26:20.155Z,3.72
2017-08-20T02:28:46.792Z,4.35
2017-08-20T02:31:13.452Z,3.28
2017-08-20T02:33:40.135Z,3.78
2017-08-20T02:36:06.776Z,3.60
2017-08-20T02:38:33.435Z,3.70
2017-08-20T02:41:00.112Z,3.47
2017-08-20T02:43:26.770Z,3.50
2017-08-20T02:45:53.417Z,3.65
2017-08-20T02:48:20.130Z,4.22
2017-08-20T02:50:46.768Z,3.40
2017-08-20T02:53:13.434Z,4.75
2017-08-20T02:55:40.159Z,4.37
2017-08-20T02:58:06.816Z,4.75
2017-08-20T03:00:33.563Z,3.90
2017-08-20T03:03:00.249Z,3.80
2017-08-20T03:05:26.939Z,3.62
2017-08-20T03:07:53.678Z,4.28
2017-08-20T03:10:20.356Z,4.70
2017-08-20T03:12:46.996Z,4.30
2017-08-20T03:15:13.650Z,4.82
2017-08-20T03:17:40.332Z,5.25
2017-08-20T03:20:07.060Z,4.00
2017-08-20T03:22:33.705Z,4.12
2017-08-20T03:25:00.361Z,3.80
2017-08-20T03:27:27.013Z,3.65
2017-08-20T03:29:53.657Z,4.60
2017-08-20T03:32:20.315Z,3.87
2017-08-20T03:34:47.006Z,3.85
2017-08-20T03:37:13.663Z,3.90
2017-08-20T03:39:40.377Z,4.30
2017-08-20T03:42:07.035Z,4.10
2017-08-20T03:44:33.695Z,4.30
2017-08-20T03:47:00.373Z,4.35
2017-08-20T03:49:27.030Z,4.07
2017-08-20T03:51:53.780Z,3.95
2017-08-20T03:54:20.516Z,5.35
2017-08-20T03:56:47.261Z,5.07
2017-08-20T03:59:13.905Z,5.70
2017-08-20T04:01:40.582Z,5.47
2017-08-20T04:04:07.303Z,5.22
2017-08-20T04:06:33.948Z,5.15
2017-08-20T04:09:00.669Z,5.50
2017-08-20T04:11:27.422Z,6.32
2017-08-20T04:13:54.078Z,5.55
2017-08-20T04:16:20.781Z,5.60
2017-08-20T04:18:47.439Z,5.75
2017-08-20T04:21:14.164Z,5.40
2017-08-20T04:23:40.828Z,5.85
2017-08-20T04:26:07.559Z,5.78
2017-08-20T04:28:34.219Z,5.20
2017-08-20T04:31:00.924Z,4.55
2017-08-20T04:33:27.669Z,4.75
2017-08-20T04:35:54.416Z,5.55
2017-08-20T04:38:21.095Z,5.80
2017-08-20T04:40:47.788Z,5.55
2017-08-20T04:43:14.528Z,5.80
2017-08-20T04:45:41.254Z,5.10
2017-08-20T04:48:07.892Z,5.53
2017-08-20T04:50:34.549Z,5.15
2017-08-20T04:53:01.310Z,6.45
2017-08-20T04:55:28.051Z,5.93
2017-08-20T04:57:54.701Z,5.37
2017-08-20T05:00:21.362Z,4.43
2017-08-20T05:02:48.021Z,5.18
2017-08-20T05:05:14.664Z,4.32
2017-08-20T05:07:41.316Z,5.28
2017-08-20T05:10:07.979Z,4.80
2017-08-20T05:12:34.638Z,4.10
2017-08-20T05:15:01.347Z,3.97
2017-08-20T05:17:28.007Z,3.87
2017-08-20T05:19:54.662Z,3.80
2017-08-20T05:22:21.383Z,3.42
2017-08-20T05:24:48.109Z,4.18
2017-08-20T05:27:14.848Z,4.50
2017-08-20T05:29:41.532Z,4.28
2017-08-20T05:32:08.228Z,5.20
2017-08-20T05:34:34.868Z,5.25
2017-08-20T05:37:01.532Z,5.12
2017-08-20T05:39:28.177Z,4.60
2017-08-20T05:41:54.816Z,3.70
2017-08-20T05:44:21.476Z,4.00
2017-08-20T05:46:48.116Z,4.60
2017-08-20T05:49:14.770Z,4.60
2017-08-20T05:51:41.562Z,4.18
2017-08-20T05:54:08.289Z,4.22
2017-08-20T05:56:35.046Z,3.92
2017-08-20T05:59:01.787Z,3.70
2017-08-20T06:01:28.438Z,4.10
2017-08-20T06:03:55.168Z,4.53
2017-08-20T06:06:21.851Z,5.03
2017-08-20T06:08:48.551Z,4.75
2017-08-20T06:11:15.199Z,4.70
2017-08-20T06:13:41.860Z,5.10
2017-08-20T06:16:08.518Z,4.47
2017-08-20T06:18:35.160Z,5.40
2017-08-20T06:21:02.169Z,5.57
2017-08-20T06:23:28.812Z,4.53
2017-08-20T06:25:55.539Z,4.20
2017-08-20T06:28:22.275Z,4.50
2017-08-20T06:30:48.920Z,4.47
2017-08-20T06:33:15.642Z,3.87
2017-08-20T06:35:42.323Z,4.62
2017-08-20T06:38:09.024Z,4.20
2017-08-20T06:40:35.683Z,8.93
2017-08-20T06:43:02.344Z,3.62
2017-08-20T06:45:29.046Z,3.85
2017-08-20T06:47:55.710Z,3.70
2017-08-20T06:50:22.427Z,3.70
2017-08-20T06:52:49.165Z,3.25
2017-08-20T06:55:15.808Z,3.55
2017-08-20T06:57:42.472Z,3.53
2017-08-20T07:00:09.128Z,3.15
2017-08-20T07:02:35.790Z,2.78
2017-08-20T07:05:02.591Z,3.70
2017-08-20T07:07:29.323Z,3.15
2017-08-20T07:09:56.063Z,3.60
2017-08-20T07:12:22.782Z,3.87
2017-08-20T07:14:49.443Z,3.20
2017-08-20T07:17:16.183Z,3.47
2017-08-20T07:19:42.864Z,2.87
2017-08-20T07:22:09.526Z,3.12
2017-08-20T07:24:36.190Z,4.07
2017-08-20T07:27:02.852Z,3.10
2017-08-20T07:29:29.569Z,3.00
2017-08-20T07:31:56.227Z,2.95
2017-08-20T07:34:22.892Z,2.80
2017-08-20T07:36:49.535Z,3.78
2017-08-20T07:39:16.227Z,3.30
2017-08-20T07:41:42.884Z,3.33
2017-08-20T07:44:09.524Z,3.12
2017-08-20T07:46:36.182Z,3.00
2017-08-20T07:49:02.852Z,13.60
2017-08-20T07:51:29.503Z,2.80
2017-08-20T07:53:56.165Z,2.70
2017-08-20T07:56:22.905Z,2.28
2017-08-20T07:58:49.659Z,3.25
2017-08-20T08:01:16.392Z,2.50
2017-08-20T08:03:43.080Z,3.20
2017-08-20T08:06:09.728Z,2.80
2017-08-20T08:08:36.365Z,2.35
2017-08-20T08:11:03.028Z,2.12
2017-08-20T08:13:29.679Z,2.75
2017-08-20T08:15:56.325Z,2.42
2017-08-20T08:18:22.985Z,2.33
2017-08-20T08:20:49.638Z,2.50
2017-08-20T08:23:16.307Z,1.90
2017-08-20T08:25:42.983Z,2.92
2017-08-20T08:28:09.628Z,2.40
2017-08-20T08:30:36.273Z,2.80
2017-08-20T08:33:02.951Z,2.08
2017-08-20T08:35:29.610Z,2.10
2017-08-20T08:37:56.261Z,1.80
2017-08-20T08:40:23.038Z,3.10
2017-08-20T08:42:49.779Z,2.03
2017-08-20T08:45:16.439Z,2.00
2017-08-20T08:47:43.156Z,1.67
2017-08-20T08:50:09.886Z,2.50
2017-08-20T08:52:36.624Z,2.20
2017-08-20T08:55:03.304Z,2.22
2017-08-20T08:57:30.004Z,2.05
2017-08-20T08:59:56.667Z,2.25
2017-08-20T09:02:23.328Z,2.05
2017-08-20T09:04:49.972Z,2.05
2017-08-20T09:07:16.678Z,2.10
2017-08-20T09:09:43.418Z,2.30
2017-08-20T09:12:10.144Z,2.45
2017-08-20T09:14:36.889Z,2.60
2017-08-20T09:17:03.639Z,2.20
2017-08-20T09:19:30.288Z,2.28
2017-08-20T09:21:56.938Z,2.03
2017-08-20T09:24:23.650Z,1.70
2017-08-20T09:26:50.416Z,2.25
2017-08-20T09:29:17.075Z,2.55
2017-08-20T09:31:43.777Z,1.67
2017-08-20T09:34:10.420Z,1.60
2017-08-20T09:36:37.064Z,1.60
2017-08-20T09:39:03.746Z,2.28
2017-08-20T09:41:30.400Z,2.25
2017-08-20T09:43:57.078Z,1.52
2017-08-20T09:46:23.755Z,1.60
2017-08-20T09:48:50.403Z,1.87
2017-08-20T09:51:17.055Z,1.90
2017-08-20T09:53:43.724Z,1.55
2017-08-20T09:56:10.469Z,1.45
2017-08-20T09:58:37.227Z,1.25
2017-08-20T10:01:03.904Z,1.20
2017-08-20T10:03:30.589Z,1.25
2017-08-20T10:05:57.242Z,1.87
2017-08-20T10:08:23.904Z,1.45
2017-08-20T10:10:50.580Z,1.40
2017-08-20T10:13:17.220Z,1.50
2017-08-20T10:15:43.880Z,1.52
2017-08-20T10:18:10.524Z,1.70
2017-08-20T10:20:37.273Z,1.83
2017-08-20T10:23:04.022Z,1.92
2017-08-20T10:25:30.687Z,1.35
2017-08-20T10:27:57.407Z,1.40
2017-08-20T10:30:24.071Z,1.73
2017-08-20T10:32:50.768Z,1.23
2017-08-20T10:35:17.508Z,1.60
2017-08-20T10:37:44.248Z,1.75
2017-08-20T10:40:10.907Z,1.70
2017-08-20T10:42:37.571Z,1.40
2017-08-20T10:45:04.285Z,1.70
2017-08-20T10:47:31.032Z,1.35
2017-08-20T10:49:57.752Z,1.52
2017-08-20T10:52:24.412Z,1.98
2017-08-20T10:54:51.132Z,1.98
2017-08-20T10:57:17.779Z,1.50
2017-08-20T10:59:44.516Z,1.50
2017-08-20T11:02:11.270Z,1.40
2017-08-20T11:04:38.011Z,1.70
2017-08-20T11:07:04.754Z,1.62
2017-08-20T11:09:31.490Z,0.98
2017-08-20T11:11:58.137Z,1.50
2017-08-20T11:14:24.861Z,1.75
2017-08-20T11:16:51.608Z,1.52
2017-08-20T11:19:18.359Z,1.70
2017-08-20T11:21:45.043Z,1.60
2017-08-20T11:24:11.702Z,1.55
2017-08-20T11:26:38.361Z,1.48
2017-08-20T11:29:05.030Z,1.30
2017-08-20T11:31:31.758Z,1.58
2017-08-20T11:33:58.484Z,1.77
2017-08-20T11:36:25.781Z,2.25
2017-08-20T11:38:52.450Z,1.80
2017-08-20T11:41:19.092Z,1.95
2017-08-20T11:43:45.756Z,1.85
2017-08-20T11:46:12.496Z,1.85
2017-08-20T11:48:39.252Z,1.52
2017-08-20T11:51:05.989Z,1.37
2017-08-20T11:53:32.636Z,1.37
2017-08-20T11:55:59.364Z,1.65
2017-08-20T11:58:26.109Z,1.83
2017-08-20T12:00:52.776Z,2.12
2017-08-20T12:03:19.421Z,1.23
2017-08-20T12:05:46.085Z,1.45
2017-08-20T12:08:12.743Z,1.62
2017-08-20T12:10:39.383Z,2.12
2017-08-20T12:13:06.145Z,1.83
2017-08-20T12:15:32.803Z,1.48
2017-08-20T12:17:59.447Z,1.35
2017-08-20T12:20:26.124Z,1.90
2017-08-20T12:22:52.815Z,1.48
2017-08-20T12:25:19.460Z,1.42
2017-08-20T12:27:46.199Z,1.55
2017-08-20T12:30:12.859Z,1.80
2017-08-20T12:32:39.504Z,1.65
2017-08-20T12:35:06.214Z,1.10
2017-08-20T12:37:32.870Z,1.48
2017-08-20T12:39:59.536Z,0.90
2017-08-20T12:42:26.218Z,1.02
2017-08-20T12:44:52.866Z,1.00
2017-08-20T12:47:19.600Z,1.17
2017-08-20T12:49:46.336Z,1.55
2017-08-20T12:52:12.984Z,1.60
2017-08-20T12:54:39.646Z,1.12
2017-08-20T12:57:06.371Z,1.37
2017-08-20T12:59:33.123Z,0.93
2017-08-20T13:01:59.863Z,1.52
2017-08-20T13:04:26.536Z,1.25
2017-08-20T13:06:53.239Z,1.75
2017-08-20T13:09:19.907Z,1.40
2017-08-20T13:11:46.599Z,1.80
2017-08-20T13:14:13.245Z,1.13
2017-08-20T13:16:40.003Z,0.90
2017-08-20T13:19:06.719Z,1.63
2017-08-20T13:21:33.471Z,1.40
2017-08-20T13:24:00.227Z,1.10
2017-08-20T13:26:26.911Z,1.55
2017-08-20T13:28:53.574Z,1.10
2017-08-20T13:31:20.231Z,1.55
2017-08-20T13:33:46.910Z,2.12
2017-08-20T13:36:13.608Z,1.70
2017-08-20T13:38:40.352Z,1.77
2017-08-20T13:41:07.032Z,1.10
2017-08-20T13:43:33.747Z,1.52
2017-08-20T13:46:00.388Z,1.15
2017-08-20T13:48:27.044Z,1.30
2017-08-20T13:50:53.680Z,1.12
2017-08-20T13:53:20.320Z,1.27
2017-08-20T13:55:47.047Z,1.52
2017-08-20T13:58:13.767Z,1.45
2017-08-20T14:00:40.422Z,1.33
2017-08-20T14:03:07.144Z,1.30
2017-08-20T14:05:33.798Z,1.02
2017-08-20T14:08:00.444Z,0.93
2017-08-20T14:10:27.124Z,0.95
2017-08-20T14:12:53.809Z,1.00
2017-08-20T14:15:20.553Z,0.88
2017-08-20T14:17:47.293Z,1.15
2017-08-20T14:20:14.047Z,1.50
2017-08-20T14:22:40.777Z,1.02
2017-08-20T14:25:07.543Z,1.02
2017-08-20T14:27:34.208Z,1.33
2017-08-20T14:30:00.903Z,1.20
2017-08-20T14:32:27.626Z,1.12
2017-08-20T14:34:54.381Z,1.30
2017-08-20T14:37:21.130Z,1.40
2017-08-20T14:39:47.811Z,1.75
2017-08-20T14:42:14.471Z,1.20
2017-08-20T14:44:41.128Z,1.08
2017-08-20T14:47:07.785Z,1.58
2017-08-20T14:49:34.429Z,1.30
2017-08-20T14:52:01.070Z,1.50
2017-08-20T14:54:27.797Z,1.20
2017-08-20T14:56:54.459Z,0.93
2017-08-20T14:59:21.109Z,1.92
2017-08-20T15:01:47.779Z,1.10
2017-08-20T15:04:14.471Z,1.13
2017-08-20T15:06:41.140Z,1.40
2017-08-20T15:09:07.836Z,1.20
2017-08-20T15:11:34.596Z,1.50
2017-08-20T15:14:01.244Z,0.93
2017-08-20T15:16:27.903Z,1.50
2017-08-20T15:18:54.592Z,1.13
2017-08-20T15:21:21.237Z,1.17
2017-08-20T15:23:47.896Z,0.90
2017-08-20T15:26:14.621Z,1.37
2017-08-20T15:28:41.280Z,1.73
2017-08-20T15:31:07.941Z,1.27
2017-08-20T15:33:34.636Z,1.30
2017-08-20T15:36:01.283Z,1.60
2017-08-20T15:38:27.944Z,1.00
2017-08-20T15:40:54.675Z,1.60
2017-08-20T15:43:21.405Z,1.30
2017-08-20T15:45:48.154Z,1.60
2017-08-20T15:48:14.814Z,1.40
2017-08-20T15:50:41.536Z,1.67
2017-08-20T15:53:08.248Z,1.75
2017-08-20T15:55:34.907Z,1.45
2017-08-20T15:58:01.572Z,1.65
2017-08-20T16:00:28.237Z,1.40
2017-08-20T16:02:54.941Z,1.35
2017-08-20T16:05:21.597Z,1.75
2017-08-20T16:07:48.302Z,1.83
2017-08-20T16:10:15.040Z,1.48
2017-08-20T16:12:41.686Z,1.75
2017-08-20T16:15:08.367Z,1.83
2017-08-20T16:17:35.066Z,1.75
2017-08-20T16:20:01.712Z,1.33
2017-08-20T16:22:28.450Z,1.62
2017-08-20T16:24:55.199Z,1.98
2017-08-20T16:27:21.846Z,2.15
2017-08-20T16:29:48.527Z,1.48
2017-08-20T16:32:15.206Z,1.85
2017-08-20T16:34:41.959Z,1.87
2017-08-20T16:37:08.629Z,1.60
2017-08-20T16:39:35.273Z,1.92
2017-08-20T16:42:01.912Z,2.00
2017-08-20T16:44:28.619Z,2.10
2017-08-20T16:46:55.360Z,2.33
2017-08-20T16:49:22.004Z,1.95
2017-08-20T16:51:48.725Z,1.85
2017-08-20T16:54:15.461Z,1.98
2017-08-20T16:56:42.222Z,2.10
2017-08-20T16:59:08.903Z,2.30
2017-08-20T17:01:35.549Z,2.03
2017-08-20T17:04:02.208Z,2.22
2017-08-20T17:06:28.987Z,2.20
2017-08-20T17:08:55.711Z,2.40
2017-08-20T17:11:22.356Z,2.58
2017-08-20T17:13:49.028Z,2.92
2017-08-20T17:16:15.677Z,2.55
2017-08-20T17:18:42.334Z,2.50
2017-08-20T17:21:09.127Z,2.25
2017-08-20T17:23:35.782Z,3.75
2017-08-20T17:26:02.432Z,3.12
2017-08-20T17:28:29.133Z,2.72
2017-08-20T17:30:55.887Z,2.70
2017-08-20T17:33:22.607Z,2.87
2017-08-20T17:35:49.282Z,3.17
2017-08-20T17:38:15.997Z,2.50
2017-08-20T17:40:42.734Z,2.75
2017-08-20T17:43:09.392Z,2.80
2017-08-20T17:45:36.035Z,2.90
2017-08-20T17:48:02.699Z,3.00
2017-08-20T17:50:29.384Z,2.15
2017-08-20T17:52:56.024Z,3.15
2017-08-20T17:55:22.683Z,2.20
2017-08-20T17:57:49.362Z,3.45
2017-08-20T18:00:16.008Z,2.37
2017-08-20T18:02:42.701Z,3.10
2017-08-20T18:05:09.380Z,2.85
2017-08-20T18:07:36.043Z,2.80
2017-08-20T18:10:02.689Z,2.60
2017-08-20T18:12:29.468Z,2.67
2017-08-20T18:14:56.197Z,2.58
2017-08-20T18:17:22.934Z,2.50
2017-08-20T18:19:49.688Z,2.53
2017-08-20T18:22:16.408Z,2.75
2017-08-20T18:24:43.053Z,3.33
2017-08-20T18:27:09.810Z,3.37
2017-08-20T18:29:36.550Z,3.40
2017-08-20T18:32:03.192Z,2.90
2017-08-20T18:34:29.859Z,2.55
2017-08-20T18:36:56.571Z,2.85
2017-08-20T18:39:23.297Z,3.60
2017-08-20T18:41:50.046Z,3.08
2017-08-20T18:44:16.707Z,3.35
2017-08-20T18:46:43.422Z,3.15
2017-08-20T18:49:10.099Z,2.97
2017-08-20T18:51:36.803Z,2.87
2017-08-20T18:54:03.555Z,3.70
2017-08-20T18:56:30.239Z,2.35
2017-08-20T18:58:56.907Z,2.62
2017-08-20T19:01:23.673Z,2.95
2017-08-20T19:03:50.385Z,2.55
2017-08-20T19:06:17.046Z,3.00
2017-08-20T19:08:43.708Z,2.72
2017-08-20T19:11:10.387Z,2.67
2017-08-20T19:13:37.031Z,2.90
2017-08-20T19:16:03.677Z,2.72
2017-08-20T19:18:30.336Z,3.10
2017-08-20T19:20:56.982Z,2.87
2017-08-20T19:23:23.647Z,2.90
2017-08-20T19:25:50.366Z,3.42
2017-08-20T19:28:17.008Z,2.90
2017-08-20T19:30:43.662Z,2.75
2017-08-20T19:33:10.398Z,3.20
2017-08-20T19:35:37.139Z,3.50
2017-08-20T19:38:03.789Z,4.43
2017-08-20T19:40:30.466Z,3.50
2017-08-20T19:42:57.155Z,3.12
2017-08-20T19:45:23.890Z,3.42
2017-08-20T19:47:51.384Z,4.18
2017-08-20T19:50:18.023Z,4.37
2017-08-20T19:52:44.678Z,4.07
2017-08-20T19:55:11.357Z,4.82
2017-08-20T19:57:38.104Z,4.45
2017-08-20T20:00:04.752Z,3.83
2017-08-20T20:02:31.407Z,3.03
2017-08-20T20:04:58.071Z,3.15
2017-08-20T20:07:24.756Z,2.42
2017-08-20T20:09:51.416Z,2.80
2017-08-20T20:12:18.159Z,2.67
2017-08-20T20:14:44.884Z,3.12
2017-08-20T20:17:11.625Z,3.03
2017-08-20T20:19:38.364Z,3.28
2017-08-20T20:22:05.009Z,3.25
2017-08-20T20:24:31.755Z,2.42
2017-08-20T20:26:58.484Z,3.17
2017-08-20T20:29:25.124Z,3.25
2017-08-20T20:31:52.652Z,2.70
2017-08-20T20:34:19.297Z,3.40
2017-08-20T20:36:45.944Z,3.35
2017-08-20T20:39:12.727Z,3.60
2017-08-20T20:41:39.389Z,3.85
2017-08-20T20:44:06.031Z,3.40
2017-08-20T20:46:32.684Z,3.83
2017-08-20T20:48:59.320Z,3.05
2017-08-20T20:51:26.006Z,3.08
2017-08-20T20:53:52.744Z,3.05
2017-08-20T20:56:19.385Z,3.50
2017-08-20T20:58:46.107Z,3.58
2017-08-20T21:01:12.769Z,2.92
2017-08-20T21:03:39.426Z,3.33
2017-08-20T21:06:06.147Z,2.97
2017-08-20T21:08:32.813Z,2.90
2017-08-20T21:10:59.452Z,3.40
2017-08-20T21:13:26.111Z,2.40
2017-08-20T21:15:52.819Z,2.80
2017-08-20T21:18:19.559Z,3.05
2017-08-20T21:20:46.210Z,2.70
2017-08-20T21:23:12.943Z,2.92
2017-08-20T21:25:39.603Z,2.45
2017-08-20T21:28:06.243Z,2.60
2017-08-20T21:30:32.914Z,2.83
2017-08-20T21:32:59.598Z,2.50
2017-08-20T21:35:26.240Z,3.45
2017-08-20T21:37:52.974Z,2.92
2017-08-20T21:40:19.701Z,2.90
2017-08-20T21:42:47.216Z,2.62
2017-08-20T21:45:13.904Z,3.05
2017-08-20T21:47:40.546Z,3.08
2017-08-20T21:50:07.283Z,2.95
2017-08-20T21:52:33.944Z,2.90
2017-08-20T21:55:00.664Z,3.17
2017-08-20T21:57:27.326Z,3.47
2017-08-20T21:59:54.049Z,3.20
2017-08-20T22:02:20.698Z,3.00
2017-08-20T22:04:47.420Z,2.92
2017-08-20T22:07:14.090Z,4.30
2017-08-20T22:09:40.804Z,4.05
2017-08-20T22:12:07.444Z,3.40
2017-08-20T22:14:34.119Z,4.15
2017-08-20T22:17:00.764Z,5.03
2017-08-20T22:19:27.408Z,3.90
2017-08-20T22:21:54.106Z,4.53
2017-08-20T22:24:20.758Z,3.35
2017-08-20T22:26:47.499Z,3.83
2017-08-20T22:29:14.168Z,4.00
2017-08-20T22:31:40.826Z,3.80
2017-08-20T22:34:07.470Z,4.55
2017-08-20T22:36:34.128Z,4.25
2017-08-20T22:39:00.768Z,4.60
2017-08-20T22:41:27.526Z,4.30
2017-08-20T22:43:54.283Z,3.95
2017-08-20T22:46:21.022Z,4.50
2017-08-20T22:48:47.750Z,4.80
2017-08-20T22:51:14.487Z,3.50
2017-08-20T22:53:41.232Z,4.10
2017-08-20T22:56:07.982Z,3.92
2017-08-20T22:58:34.655Z,4.15
2017-08-20T23:01:01.327Z,4.68
2017-08-20T23:03:27.986Z,4.32
2017-08-20T23:05:54.747Z,4.00
2017-08-20T23:08:21.484Z,4.65
2017-08-20T23:10:48.212Z,4.72
2017-08-20T23:13:14.955Z,4.22
2017-08-20T23:15:41.696Z,4.87
2017-08-20T23:18:08.355Z,5.32
2017-08-20T23:20:35.075Z,4.82
2017-08-20T23:23:01.723Z,4.62
2017-08-20T23:25:28.383Z,4.20
2017-08-20T23:27:55.062Z,3.90
2017-08-20T23:30:21.723Z,3.95
2017-08-20T23:32:48.387Z,4.72
2017-08-20T23:35:15.075Z,3.83
2017-08-20T23:37:41.758Z,4.60
2017-08-20T23:40:08.497Z,4.30
2017-08-20T23:42:35.254Z,4.35
2017-08-20T23:45:01.995Z,4.15
2017-08-20T23:47:28.648Z,5.35
2017-08-20T23:49:55.334Z,4.18
2017-08-20T23:52:21.976Z,4.80
2017-08-20T23:54:48.620Z,5.62
2017-08-20T23:57:15.384Z,5.05
2017-08-20T23:59:42.026Z,4.65
